createdAt,value
2023-03-11T00:00:34.415Z,2.53
2023-03-11T00:03:02.957Z,2.80
2023-03-11T00:05:33.593Z,6.97
2023-03-11T00:08:01.182Z,3.43
2023-03-11T00:10:30.878Z,3.03
2023-03-11T00:12:59.050Z,3.53
2023-03-11T00:15:26.740Z,3.97
2023-03-11T00:17:54.086Z,3.27
2023-03-11T00:20:27.730Z,4.50
2023-03-11T00:22:55.304Z,4.23
2023-03-11T00:25:24.552Z,3.23
2023-03-11T00:27:51.325Z,3.53
2023-03-11T00:30:19.528Z,4.57
2023-03-11T00:32:48.737Z,4.13
2023-03-11T00:35:18.941Z,4.17
2023-03-11T00:37:47.315Z,4.67
2023-03-11T00:40:20.184Z,4.93
2023-03-11T00:42:47.091Z,5.23
2023-03-11T00:45:14.699Z,3.57
2023-03-11T00:47:42.176Z,3.83
2023-03-11T00:50:12.192Z,7.03
2023-03-11T00:52:38.905Z,7.03
2023-03-11T00:55:06.667Z,5.63
2023-03-11T00:57:34.556Z,6.20
2023-03-11T01:00:01.245Z,5.10
2023-03-11T01:02:28.038Z,6.37
2023-03-11T01:04:56.545Z,4.67
2023-03-11T01:07:23.458Z,4.67
2023-03-11T01:09:50.135Z,4.07
2023-03-11T01:12:16.875Z,7.30
2023-03-11T01:14:43.676Z,4.33
2023-03-11T01:17:10.397Z,6.13
2023-03-11T01:19:37.075Z,4.07
2023-03-11T01:22:03.945Z,4.77
2023-03-11T01:24:30.593Z,6.73
2023-03-11T01:26:57.262Z,5.10
2023-03-11T01:29:24.804Z,4.07
2023-03-11T01:31:51.578Z,4.03
2023-03-11T01:34:18.331Z,5.33
2023-03-11T01:36:44.994Z,5.67
2023-03-11T01:39:11.870Z,3.47
2023-03-11T01:41:38.549Z,3.20
2023-03-11T01:44:05.772Z,6.33
2023-03-11T01:47:00.044Z,4.27
2023-03-11T01:49:32.754Z,5.37
2023-03-11T01:52:07.775Z,4.33
2023-03-11T01:54:41.446Z,5.80
2023-03-11T01:57:13.407Z,7.00
2023-03-11T01:59:47.208Z,4.57
2023-03-11T02:02:25.376Z,2.53
2023-03-11T02:04:53.337Z,5.67
2023-03-11T02:07:22.967Z,5.83
2023-03-11T02:09:49.763Z,2.17
2023-03-11T02:12:16.683Z,5.13
2023-03-11T02:14:48.351Z,5.80
2023-03-11T02:17:15.520Z,6.33
2023-03-11T02:20:07.557Z,6.70
2023-03-11T02:22:34.835Z,4.43
2023-03-11T02:25:11.812Z,6.03
2023-03-11T02:27:43.419Z,4.83
2023-03-11T02:30:12.985Z,3.60
2023-03-11T02:32:42.928Z,4.90
2023-03-11T02:35:09.881Z,3.00
2023-03-11T02:37:36.871Z,5.40
2023-03-11T02:40:24.752Z,3.47
2023-03-11T02:42:58.181Z,5.47
2023-03-11T02:45:26.538Z,6.53
2023-03-11T02:47:55.608Z,6.90
2023-03-11T02:50:22.850Z,3.03
2023-03-11T02:52:50.165Z,5.13
2023-03-11T02:55:18.088Z,7.33
2023-03-11T02:57:45.191Z,3.03
2023-03-11T03:00:15.737Z,4.30
2023-03-11T03:02:52.115Z,7.23
2023-03-11T03:05:20.728Z,3.33
2023-03-11T03:07:49.142Z,2.17
2023-03-11T03:10:18.789Z,9.90
2023-03-11T03:12:45.981Z,4.93
2023-03-11T03:15:12.782Z,4.93
2023-03-11T03:17:39.651Z,4.87
2023-03-11T03:20:12.561Z,5.43
2023-03-11T03:22:42.847Z,5.17
2023-03-11T03:25:11.723Z,4.17
2023-03-11T03:27:38.976Z,4.73
2023-03-11T03:30:08.189Z,5.10
2023-03-11T03:32:35.691Z,4.80
2023-03-11T03:35:04.670Z,5.87
2023-03-11T03:38:01.144Z,6.83
2023-03-11T03:40:27.918Z,4.50
2023-03-11T03:42:57.094Z,5.00
2023-03-11T03:45:24.479Z,4.57
2023-03-11T03:47:53.035Z,5.47
2023-03-11T03:50:22.013Z,7.47
2023-03-11T03:52:50.554Z,7.47
2023-03-11T03:55:17.594Z,4.87
2023-03-11T03:57:44.260Z,5.90
2023-03-11T04:00:13.518Z,7.73
2023-03-11T04:02:46.218Z,4.77
2023-03-11T04:05:21.942Z,4.50
2023-03-11T04:07:48.725Z,7.47
2023-03-11T04:10:15.709Z,7.87
2023-03-11T04:12:43.183Z,4.67
2023-03-11T04:15:10.584Z,4.87
2023-03-11T04:17:38.762Z,6.93
2023-03-11T04:20:10.362Z,3.13
2023-03-11T04:22:37.118Z,4.90
2023-03-11T04:25:04.979Z,4.70
2023-03-11T04:27:32.632Z,4.87
2023-03-11T04:30:00.219Z,5.27
2023-03-11T04:32:27.055Z,5.63
2023-03-11T04:34:53.736Z,5.70
2023-03-11T04:37:20.515Z,3.60
2023-03-11T04:39:47.478Z,6.13
2023-03-11T04:42:14.240Z,6.73
2023-03-11T04:44:43.312Z,6.93
2023-03-11T04:47:10.299Z,8.70
2023-03-11T04:49:37.180Z,5.70
2023-03-11T04:52:04.254Z,5.03
2023-03-11T04:54:30.978Z,5.27
2023-03-11T04:56:57.712Z,5.17
2023-03-11T04:59:24.744Z,5.90
2023-03-11T05:01:52.270Z,3.07
2023-03-11T05:04:19.339Z,8.87
2023-03-11T05:06:46.330Z,9.50
2023-03-11T05:09:14.087Z,4.30
2023-03-11T05:11:41.073Z,4.67
2023-03-11T05:14:08.506Z,7.77
2023-03-11T05:16:35.580Z,7.60
2023-03-11T05:19:23.740Z,5.37
2023-03-11T05:21:50.676Z,6.10
2023-03-11T05:24:17.366Z,5.63
2023-03-11T05:26:44.078Z,4.97
2023-03-11T05:29:10.837Z,6.77
2023-03-11T05:31:37.632Z,4.43
2023-03-11T05:34:04.453Z,4.50
2023-03-11T05:36:31.162Z,4.97
2023-03-11T05:38:58.064Z,5.53
2023-03-11T05:41:24.885Z,5.23
2023-03-11T05:43:52.270Z,4.13
2023-03-11T05:46:20.539Z,5.17
2023-03-11T05:48:47.369Z,2.90
2023-03-11T05:51:14.707Z,5.27
2023-03-11T05:53:48.457Z,6.57
2023-03-11T05:56:21.864Z,9.77
2023-03-11T05:58:49.780Z,7.93
2023-03-11T06:01:19.466Z,9.20
2023-03-11T06:03:46.787Z,5.27
2023-03-11T06:06:14.231Z,7.23
2023-03-11T06:08:45.863Z,4.77
2023-03-11T06:11:12.968Z,9.80
2023-03-11T06:13:40.059Z,6.33
2023-03-11T06:16:09.534Z,5.97
2023-03-11T06:18:36.612Z,5.83
2023-03-11T06:21:05.067Z,8.47
2023-03-11T06:23:32.980Z,6.73
2023-03-11T06:26:02.734Z,5.97
2023-03-11T06:28:32.179Z,4.33
2023-03-11T06:31:10.924Z,7.47
2023-03-11T06:33:37.929Z,10.10
2023-03-11T06:36:06.092Z,6.73
2023-03-11T06:38:36.276Z,5.20
2023-03-11T06:41:05.805Z,6.13
2023-03-11T06:43:35.503Z,5.97
2023-03-11T06:46:11.392Z,5.07
2023-03-11T06:48:39.378Z,10.93
2023-03-11T06:51:06.255Z,4.33
2023-03-11T06:53:33.768Z,5.67
2023-03-11T06:56:05.112Z,4.77
2023-03-11T06:58:37.259Z,4.40
2023-03-11T07:01:10.754Z,4.77
2023-03-11T07:03:38.751Z,5.93
2023-03-11T07:06:06.775Z,7.90
2023-03-11T07:08:33.943Z,5.87
2023-03-11T07:11:06.706Z,4.43
2023-03-11T07:13:34.695Z,7.33
2023-03-11T07:16:07.613Z,5.43
2023-03-11T07:18:35.549Z,4.13
2023-03-11T07:21:04.181Z,5.70
2023-03-11T07:23:30.924Z,4.80
2023-03-11T07:25:57.641Z,6.53
2023-03-11T07:28:25.829Z,7.60
2023-03-11T07:30:53.162Z,9.80
2023-03-11T07:33:21.564Z,6.33
2023-03-11T07:35:49.295Z,6.33
2023-03-11T07:38:17.906Z,6.73
2023-03-11T07:40:44.707Z,5.20
2023-03-11T07:43:11.628Z,7.63
2023-03-11T07:45:38.312Z,5.87
2023-03-11T07:48:05.392Z,8.97
2023-03-11T07:50:32.074Z,5.97
2023-03-11T07:52:58.777Z,5.17
2023-03-11T07:55:25.460Z,6.63
2023-03-11T07:57:52.162Z,7.35
2023-03-11T08:00:19.708Z,7.50
2023-03-11T08:02:46.534Z,6.22
2023-03-11T08:05:13.436Z,7.32
2023-03-11T08:07:40.076Z,7.68
2023-03-11T08:10:07.263Z,7.47
2023-03-11T08:12:34.056Z,5.78
2023-03-11T08:15:00.792Z,5.18
2023-03-11T08:17:27.473Z,6.55
2023-03-11T08:19:54.116Z,7.32
2023-03-11T08:22:20.860Z,5.63
2023-03-11T08:24:51.805Z,5.63
2023-03-11T08:27:18.828Z,6.22
2023-03-11T08:29:45.518Z,6.68
2023-03-11T08:32:12.257Z,7.57
2023-03-11T08:34:39.522Z,9.32
2023-03-11T08:37:06.788Z,5.63
2023-03-11T08:39:33.490Z,4.72
2023-03-11T08:42:00.595Z,4.75
2023-03-11T08:44:27.297Z,4.82
2023-03-11T08:46:54.258Z,6.20
2023-03-11T08:49:20.960Z,6.25
2023-03-11T08:51:47.588Z,6.40
2023-03-11T08:54:14.303Z,4.85
2023-03-11T08:56:40.990Z,6.28
2023-03-11T08:59:08.537Z,7.28
2023-03-11T09:01:35.228Z,5.32
2023-03-11T09:04:01.945Z,6.38
2023-03-11T09:06:30.434Z,5.78
2023-03-11T09:08:57.720Z,3.83
2023-03-11T09:11:24.811Z,3.78
2023-03-11T09:13:51.893Z,5.70
2023-03-11T09:16:21.431Z,3.53
2023-03-11T09:18:48.725Z,5.82
2023-03-11T09:21:15.504Z,5.88
2023-03-11T09:23:44.331Z,2.95
2023-03-11T09:26:12.503Z,4.47
2023-03-11T09:28:40.215Z,3.95
2023-03-11T09:31:07.232Z,4.32
2023-03-11T09:33:39.648Z,5.70
2023-03-11T09:36:07.319Z,5.25
2023-03-11T09:38:34.258Z,4.90
2023-03-11T09:41:23.104Z,5.25
2023-03-11T09:43:55.835Z,6.28
2023-03-11T09:46:49.887Z,6.35
2023-03-11T09:49:27.895Z,7.50
2023-03-11T09:52:15.603Z,7.25
2023-03-11T09:54:52.314Z,6.10
2023-03-11T09:57:26.611Z,3.85
2023-03-11T09:59:54.524Z,4.07
2023-03-11T10:02:26.649Z,6.18
2023-03-11T10:05:00.946Z,4.72
2023-03-11T10:07:39.821Z,5.75
2023-03-11T10:10:11.266Z,4.90
2023-03-11T10:12:52.133Z,5.75
2023-03-11T10:15:39.620Z,6.30
2023-03-11T10:18:28.018Z,4.85
2023-03-11T10:20:54.611Z,5.70
2023-03-11T10:23:47.229Z,3.23
2023-03-11T10:26:23.274Z,3.43
2023-03-11T10:29:00.090Z,3.80
2023-03-11T10:31:32.910Z,5.35
2023-03-11T10:34:45.210Z,4.75
2023-03-11T10:37:18.635Z,3.85
2023-03-11T10:39:50.564Z,7.65
2023-03-11T10:42:22.503Z,3.53
2023-03-11T10:44:51.070Z,2.60
2023-03-11T10:47:24.311Z,5.55
2023-03-11T10:49:52.381Z,3.17
2023-03-11T10:52:20.060Z,5.53
2023-03-11T10:54:58.548Z,4.43
2023-03-11T10:57:29.071Z,3.08
2023-03-11T10:59:58.319Z,5.13
2023-03-11T11:02:42.084Z,3.72
2023-03-11T11:05:16.094Z,5.75
2023-03-11T11:07:44.927Z,4.25
2023-03-11T11:10:11.527Z,3.42
2023-03-11T11:13:02.472Z,5.13
2023-03-11T11:15:37.442Z,4.32
2023-03-11T11:18:19.698Z,4.03
2023-03-11T11:21:06.941Z,3.87
2023-03-11T11:23:41.892Z,4.27
2023-03-11T11:26:22.137Z,4.63
2023-03-11T11:29:27.271Z,5.20
2023-03-11T11:32:19.101Z,4.43
2023-03-11T11:34:59.715Z,4.28
2023-03-11T11:37:31.807Z,5.30
2023-03-11T11:40:11.167Z,5.40
2023-03-11T11:42:41.210Z,4.38
2023-03-11T11:45:22.768Z,4.10
2023-03-11T11:47:53.993Z,3.92
2023-03-11T11:50:35.990Z,4.28
2023-03-11T11:53:15.086Z,4.80
2023-03-11T11:55:47.692Z,4.32
2023-03-11T11:58:14.761Z,5.07
2023-03-11T12:01:05.679Z,4.50
2023-03-11T12:03:44.358Z,4.10
2023-03-11T12:06:25.087Z,5.28
2023-03-11T12:09:14.660Z,3.25
2023-03-11T12:11:56.107Z,5.78
2023-03-11T12:14:45.782Z,3.08
2023-03-11T12:17:14.883Z,4.10
2023-03-11T12:19:46.025Z,3.90
2023-03-11T12:22:38.878Z,4.43
2023-03-11T12:25:27.228Z,6.38
2023-03-11T12:28:09.215Z,4.97
2023-03-11T12:30:43.946Z,5.60
2023-03-11T12:33:43.121Z,3.45
2023-03-11T12:36:40.662Z,4.05
2023-03-11T12:39:19.489Z,4.63
2023-03-11T12:41:46.522Z,4.43
2023-03-11T12:44:30.763Z,5.87
2023-03-11T12:47:15.343Z,4.47
2023-03-11T12:50:08.722Z,3.73
2023-03-11T12:52:53.468Z,7.50
2023-03-11T12:55:32.006Z,4.70
2023-03-11T12:58:11.470Z,4.67
2023-03-11T13:01:05.606Z,4.63
2023-03-11T13:03:51.066Z,4.23
2023-03-11T13:06:55.617Z,4.00
2023-03-11T13:09:25.110Z,5.30
2023-03-11T13:11:52.049Z,3.60
2023-03-11T13:14:28.737Z,3.27
2023-03-11T13:16:56.419Z,3.57
2023-03-11T13:19:26.096Z,6.03
2023-03-11T13:21:53.790Z,5.43
2023-03-11T13:24:25.799Z,5.07
2023-03-11T13:27:04.952Z,4.03
2023-03-11T13:29:31.792Z,3.97
2023-03-11T13:32:36.432Z,4.93
2023-03-11T13:35:05.778Z,4.63
2023-03-11T13:37:44.217Z,5.03
2023-03-11T13:40:26.423Z,6.13
2023-03-11T13:42:58.023Z,6.27
2023-03-11T13:45:35.687Z,4.50
2023-03-11T13:48:31.280Z,3.47
2023-03-11T13:51:13.161Z,3.73
2023-03-11T13:53:47.490Z,6.50
2023-03-11T13:56:29.208Z,4.77
2023-03-11T13:59:17.451Z,3.97
2023-03-11T14:01:52.362Z,5.57
2023-03-11T14:04:26.426Z,5.00
2023-03-11T14:06:53.381Z,6.07
2023-03-11T14:09:22.982Z,4.47
2023-03-11T14:11:49.916Z,4.27
2023-03-11T14:14:43.436Z,7.03
2023-03-11T14:17:16.585Z,4.67
2023-03-11T14:20:12.253Z,5.43
2023-03-11T14:22:39.217Z,5.90
2023-03-11T14:25:10.147Z,4.40
2023-03-11T14:27:45.362Z,4.90
2023-03-11T14:30:20.407Z,4.10
2023-03-11T14:32:59.764Z,4.40
2023-03-11T14:35:26.917Z,3.37
2023-03-11T14:37:53.807Z,3.30
2023-03-11T14:40:37.621Z,5.77
2023-03-11T14:43:07.273Z,5.30
2023-03-11T14:45:38.899Z,3.57
2023-03-11T14:48:13.464Z,4.27
2023-03-11T14:50:42.678Z,6.77
2023-03-11T14:53:12.189Z,5.03
2023-03-11T14:55:40.501Z,5.77
2023-03-11T14:58:15.952Z,5.37
2023-03-11T15:00:59.656Z,4.77
2023-03-11T15:03:31.008Z,4.40
2023-03-11T15:06:08.534Z,4.23
2023-03-11T15:08:47.300Z,4.63
2023-03-11T15:11:13.851Z,6.23
2023-03-11T15:13:43.044Z,4.90
2023-03-11T15:16:34.732Z,4.93
2023-03-11T15:19:32.067Z,5.33
2023-03-11T15:22:21.643Z,4.90
2023-03-11T15:24:57.694Z,4.50
2023-03-11T15:27:33.003Z,4.47
2023-03-11T15:30:00.781Z,4.50
2023-03-11T15:32:41.289Z,4.80
2023-03-11T15:35:07.962Z,7.60
2023-03-11T15:37:35.125Z,6.07
2023-03-11T15:40:12.816Z,4.83
2023-03-11T15:42:39.577Z,7.20
2023-03-11T15:45:13.266Z,4.93
2023-03-11T15:47:40.550Z,5.47
2023-03-11T15:50:24.519Z,8.33
2023-03-11T15:52:56.648Z,5.73
2023-03-11T15:55:25.337Z,5.27
2023-03-11T15:58:05.550Z,8.37
2023-03-11T16:00:32.458Z,6.90
2023-03-11T16:02:59.185Z,4.53
2023-03-11T16:05:25.988Z,5.97
2023-03-11T16:07:52.640Z,7.53
2023-03-11T16:10:22.463Z,5.47
2023-03-11T16:12:49.150Z,7.33
2023-03-11T16:15:20.981Z,6.47
2023-03-11T16:17:50.389Z,7.13
2023-03-11T16:20:19.066Z,5.00
2023-03-11T16:22:47.492Z,11.27
2023-03-11T16:25:21.875Z,6.90
2023-03-11T16:27:51.012Z,4.37
2023-03-11T16:30:18.493Z,9.13
2023-03-11T16:32:45.202Z,5.97
2023-03-11T16:35:12.142Z,4.27
2023-03-11T16:37:39.737Z,6.37
2023-03-11T16:40:07.250Z,5.93
2023-03-11T16:42:33.924Z,4.77
2023-03-11T16:45:02.777Z,3.97
2023-03-11T16:47:30.514Z,4.93
2023-03-11T16:49:57.126Z,4.83
2023-03-11T16:52:23.898Z,3.00
2023-03-11T16:54:50.683Z,5.93
2023-03-11T16:57:17.376Z,5.57
2023-03-11T16:59:44.214Z,4.23
2023-03-11T17:02:12.174Z,3.77
2023-03-11T17:04:38.842Z,4.83
2023-03-11T17:07:06.980Z,7.33
2023-03-11T17:09:35.238Z,6.57
2023-03-11T17:12:02.624Z,4.93
2023-03-11T17:14:29.356Z,4.60
2023-03-11T17:16:56.027Z,3.43
2023-03-11T17:19:23.997Z,7.83
2023-03-11T17:21:51.468Z,6.47
2023-03-11T17:24:18.346Z,5.23
2023-03-11T17:26:44.990Z,5.23
2023-03-11T17:29:11.648Z,5.40
2023-03-11T17:31:38.380Z,5.23
2023-03-11T17:34:05.022Z,5.40
2023-03-11T17:36:31.786Z,5.20
2023-03-11T17:38:58.421Z,6.60
2023-03-11T17:41:25.126Z,8.80
2023-03-11T17:43:51.785Z,6.00
2023-03-11T17:46:20.382Z,4.80
2023-03-11T17:48:49.085Z,7.90
2023-03-11T17:51:18.982Z,5.83
2023-03-11T17:53:46.633Z,7.90
2023-03-11T17:56:15.995Z,6.50
2023-03-11T17:58:42.683Z,5.10
2023-03-11T18:01:20.336Z,7.97
2023-03-11T18:03:47.530Z,6.67
2023-03-11T18:06:15.487Z,14.67
2023-03-11T18:08:42.130Z,11.87
2023-03-11T18:11:11.406Z,9.10
2023-03-11T18:13:39.866Z,7.97
2023-03-11T18:16:09.524Z,9.30
2023-03-11T18:18:37.351Z,13.10
2023-03-11T18:21:06.188Z,13.93
2023-03-11T18:23:33.345Z,9.80
2023-03-11T18:26:04.580Z,18.37
2023-03-11T18:28:31.861Z,12.77
2023-03-11T18:31:18.284Z,12.20
2023-03-11T18:33:53.973Z,12.20
2023-03-11T18:36:26.990Z,12.17
2023-03-11T18:38:55.260Z,13.77
2023-03-11T18:41:22.177Z,13.57
2023-03-11T18:43:53.783Z,16.33
2023-03-11T18:46:20.590Z,17.10
2023-03-11T18:48:47.283Z,13.33
2023-03-11T18:51:14.115Z,7.93
2023-03-11T18:53:42.836Z,10.73
2023-03-11T18:56:13.760Z,12.03
2023-03-11T18:58:40.672Z,13.20
2023-03-11T19:01:14.119Z,15.70
2023-03-11T19:03:48.504Z,11.23
2023-03-11T19:06:16.516Z,13.20
2023-03-11T19:08:43.553Z,11.60
2023-03-11T19:11:19.917Z,11.70
2023-03-11T19:13:48.080Z,11.63
2023-03-11T19:16:21.544Z,12.77
2023-03-11T19:18:48.366Z,15.13
2023-03-11T19:21:16.240Z,11.97
2023-03-11T19:23:44.229Z,13.80
2023-03-11T19:26:11.030Z,14.17
2023-03-11T19:28:37.765Z,59.07
2023-03-11T19:31:05.399Z,39.80
2023-03-11T19:33:32.500Z,31.77
2023-03-11T19:36:01.778Z,32.27
2023-03-11T19:38:29.143Z,26.80
2023-03-11T19:41:11.091Z,24.53
2023-03-11T19:43:37.866Z,14.97
2023-03-11T19:46:06.346Z,19.47
2023-03-11T19:48:33.733Z,21.97
2023-03-11T19:51:02.288Z,24.17
2023-03-11T19:53:29.253Z,17.97
2023-03-11T19:55:57.462Z,19.77
2023-03-11T19:58:28.636Z,20.73
2023-03-11T20:00:58.071Z,17.50
2023-03-11T20:03:24.993Z,16.63
2023-03-11T20:05:52.528Z,15.93
2023-03-11T20:08:20.939Z,16.70
2023-03-11T20:10:50.246Z,14.20
2023-03-11T20:13:20.114Z,13.53
2023-03-11T20:15:46.971Z,15.87
2023-03-11T20:18:13.698Z,15.10
2023-03-11T20:20:43.008Z,23.40
2023-03-11T20:23:10.173Z,25.23
2023-03-11T20:25:41.458Z,25.77
2023-03-11T20:28:08.714Z,12.87
2023-03-11T20:30:37.585Z,11.30
2023-03-11T20:33:04.441Z,10.07
2023-03-11T20:35:31.202Z,8.50
2023-03-11T20:37:59.310Z,8.20
2023-03-11T20:40:26.158Z,7.97
2023-03-11T20:42:52.957Z,7.40
2023-03-11T20:45:22.527Z,7.57
2023-03-11T20:47:50.425Z,5.57
2023-03-11T20:50:17.577Z,5.97
2023-03-11T20:52:44.718Z,7.30
2023-03-11T20:55:12.557Z,5.67
2023-03-11T20:57:39.820Z,7.80
2023-03-11T21:00:11.274Z,6.40
2023-03-11T21:02:42.856Z,21.37
2023-03-11T21:05:11.379Z,14.07
2023-03-11T21:07:38.541Z,10.47
2023-03-11T21:10:12.660Z,14.40
2023-03-11T21:12:39.465Z,9.30
2023-03-11T21:15:08.297Z,9.57
2023-03-11T21:17:35.913Z,7.57
2023-03-11T21:20:05.194Z,6.27
2023-03-11T21:22:32.813Z,9.87
2023-03-11T21:24:59.464Z,4.10
2023-03-11T21:27:26.665Z,10.07
2023-03-11T21:29:58.030Z,7.03
2023-03-11T21:32:26.743Z,7.53
2023-03-11T21:34:58.669Z,8.20
2023-03-11T21:37:26.187Z,7.37
2023-03-11T21:39:53.109Z,9.30
2023-03-11T21:42:20.206Z,9.47
2023-03-11T21:44:47.156Z,8.40
2023-03-11T21:47:13.981Z,6.57
2023-03-11T21:49:40.813Z,9.13
2023-03-11T21:52:07.568Z,7.40
2023-03-11T21:54:34.281Z,6.67
2023-03-11T21:57:01.186Z,8.77
2023-03-11T21:59:27.982Z,9.57
2023-03-11T22:01:54.776Z,8.20
2023-03-11T22:04:21.728Z,9.33
2023-03-11T22:06:48.539Z,11.93
2023-03-11T22:09:15.301Z,8.40
2023-03-11T22:11:42.131Z,8.17
2023-03-11T22:14:08.871Z,10.37
2023-03-11T22:16:35.726Z,10.20
2023-03-11T22:19:04.308Z,10.77
2023-03-11T22:21:31.021Z,7.90
2023-03-11T22:23:57.729Z,9.33
2023-03-11T22:26:24.369Z,8.60
2023-03-11T22:28:50.965Z,9.27
2023-03-11T22:31:18.890Z,9.33
2023-03-11T22:33:47.401Z,9.90
2023-03-11T22:36:14.381Z,8.97
2023-03-11T22:38:44.107Z,10.07
2023-03-11T22:41:13.270Z,8.60
2023-03-11T22:43:40.088Z,9.20
2023-03-11T22:46:07.003Z,8.87
2023-03-11T22:48:34.591Z,7.03
2023-03-11T22:51:01.943Z,8.50
2023-03-11T22:53:29.118Z,9.37
2023-03-11T22:55:55.914Z,10.10
2023-03-11T22:58:22.566Z,10.10
2023-03-11T23:00:49.260Z,8.03
2023-03-11T23:03:16.018Z,9.30
2023-03-11T23:05:43.203Z,12.40
2023-03-11T23:08:11.970Z,10.30
2023-03-11T23:10:44.447Z,9.70
2023-03-11T23:13:11.550Z,8.47
2023-03-11T23:15:41.860Z,9.03
2023-03-11T23:18:08.870Z,9.23
2023-03-11T23:20:37.229Z,6.63
2023-03-11T23:23:04.568Z,7.33
2023-03-11T23:25:32.185Z,6.80
2023-03-11T23:28:01.471Z,6.13
2023-03-11T23:30:28.966Z,8.43
2023-03-11T23:32:57.036Z,5.67
2023-03-11T23:35:24.279Z,8.43
2023-03-11T23:37:51.099Z,7.80
2023-03-11T23:40:18.573Z,7.93
2023-03-11T23:42:45.252Z,6.27
2023-03-11T23:45:11.995Z,9.20
2023-03-11T23:47:38.766Z,10.23
2023-03-11T23:50:06.048Z,5.97
2023-03-11T23:52:33.484Z,7.87
2023-03-11T23:55:00.421Z,7.47
2023-03-11T23:57:27.305Z,5.47
2023-03-11T23:59:53.970Z,8.60
